createdAt,value
2018-09-21T00:00:16.008Z,2.50
2018-09-21T00:01:15.944Z,2.70
2018-09-21T00:02:15.967Z,2.60
2018-09-21T00:03:15.924Z,2.30
2018-09-21T00:04:15.922Z,2.70
2018-09-21T00:05:15.940Z,2.60
2018-09-21T00:06:15.889Z,2.70
2018-09-21T00:07:15.905Z,2.80
2018-09-21T00:08:15.867Z,2.40
2018-09-21T00:09:15.906Z,2.40
2018-09-21T00:10:15.851Z,2.80
2018-09-21T00:11:15.833Z,2.60
2018-09-21T00:12:15.823Z,3.00
2018-09-21T00:13:15.905Z,3.10
2018-09-21T00:14:15.805Z,2.40
2018-09-21T00:15:15.889Z,2.80
2018-09-21T00:16:15.777Z,2.50
2018-09-21T00:17:15.766Z,2.60
2018-09-21T00:18:15.754Z,2.70
2018-09-21T00:19:15.762Z,3.00
2018-09-21T00:20:15.737Z,2.80
2018-09-21T00:21:15.784Z,2.70
2018-09-21T00:22:15.717Z,2.70
2018-09-21T00:23:15.700Z,3.10
2018-09-21T00:24:15.688Z,2.70
2018-09-21T00:25:15.697Z,2.90
2018-09-21T00:26:15.664Z,2.40
2018-09-21T00:27:15.656Z,2.80
2018-09-21T00:28:15.686Z,2.80
2018-09-21T00:29:15.687Z,2.80
2018-09-21T00:30:15.620Z,2.40
2018-09-21T00:31:15.638Z,3.10
2018-09-21T00:32:15.598Z,2.90
2018-09-21T00:33:15.589Z,2.60
2018-09-21T00:34:15.587Z,3.10
2018-09-21T00:35:15.581Z,2.90
2018-09-21T00:36:15.564Z,2.80
2018-09-21T00:37:15.589Z,2.60
2018-09-21T00:38:15.551Z,3.00
2018-09-21T00:39:15.520Z,2.30
2018-09-21T00:40:15.537Z,2.60
2018-09-21T00:41:15.510Z,2.90
2018-09-21T00:42:15.489Z,2.80
2018-09-21T00:43:15.496Z,2.70
2018-09-21T00:44:15.496Z,3.00
2018-09-21T00:45:15.453Z,2.70
2018-09-21T00:46:15.440Z,2.50
2018-09-21T00:47:15.429Z,2.50
2018-09-21T00:48:15.432Z,3.00
2018-09-21T00:49:15.436Z,3.20
2018-09-21T00:50:15.397Z,2.80
2018-09-21T00:51:15.412Z,2.90
2018-09-21T00:52:15.383Z,2.50
2018-09-21T00:53:15.367Z,2.60
2018-09-21T00:54:15.358Z,3.00
2018-09-21T00:55:15.398Z,3.50
2018-09-21T00:56:15.330Z,2.90
2018-09-21T00:57:15.318Z,2.80
2018-09-21T00:58:15.333Z,2.80
2018-09-21T00:59:15.327Z,2.80
2018-09-21T01:00:15.289Z,3.00
2018-09-21T01:01:15.296Z,3.10
2018-09-21T01:02:15.297Z,2.90
2018-09-21T01:03:15.252Z,2.80
2018-09-21T01:04:15.299Z,3.20
2018-09-21T01:05:15.230Z,3.50
2018-09-21T01:06:15.229Z,2.90
2018-09-21T01:07:15.232Z,3.00
2018-09-21T01:08:15.195Z,2.90
2018-09-21T01:09:15.205Z,2.60
2018-09-21T01:10:15.182Z,2.80
2018-09-21T01:11:15.163Z,2.80
2018-09-21T01:12:15.186Z,2.60
2018-09-21T01:13:15.161Z,3.10
2018-09-21T01:14:15.128Z,2.80
2018-09-21T01:15:15.115Z,3.10
2018-09-21T01:16:15.121Z,2.90
2018-09-21T01:17:15.096Z,3.20
2018-09-21T01:18:15.096Z,3.10
2018-09-21T01:19:15.107Z,3.30
2018-09-21T01:20:15.063Z,2.90
2018-09-21T01:21:15.049Z,2.90
2018-09-21T01:22:15.038Z,2.60
2018-09-21T01:23:15.031Z,2.90
2018-09-21T01:24:15.073Z,3.10
2018-09-21T01:25:15.088Z,3.00
2018-09-21T01:26:14.998Z,3.30
2018-09-21T01:27:14.988Z,3.10
2018-09-21T01:28:14.986Z,2.80
2018-09-21T01:29:15.012Z,3.00
2018-09-21T01:30:14.979Z,2.80
2018-09-21T01:31:14.979Z,3.10
2018-09-21T01:32:14.928Z,3.10
2018-09-21T01:33:14.949Z,3.10
2018-09-21T01:34:14.939Z,3.40
2018-09-21T01:35:14.895Z,3.00
2018-09-21T01:36:14.887Z,2.70
2018-09-21T01:37:14.892Z,3.00
2018-09-21T01:38:14.861Z,2.80
2018-09-21T01:39:14.880Z,2.90
2018-09-21T01:40:14.900Z,2.50
2018-09-21T01:41:14.861Z,2.90
2018-09-21T01:42:14.818Z,2.80
2018-09-21T01:43:14.818Z,3.10
2018-09-21T01:44:14.796Z,2.80
2018-09-21T01:45:14.781Z,3.40
2018-09-21T01:46:14.782Z,3.30
2018-09-21T01:47:14.770Z,3.20
2018-09-21T01:48:14.857Z,3.80
2018-09-21T01:49:14.751Z,3.50
2018-09-21T01:50:14.736Z,3.40
2018-09-21T01:51:14.715Z,3.10
2018-09-21T01:52:14.708Z,3.40
2018-09-21T01:53:14.707Z,3.20
2018-09-21T01:54:14.697Z,3.10
2018-09-21T01:55:14.681Z,3.30
2018-09-21T01:56:14.683Z,3.90
2018-09-21T01:57:14.654Z,3.20
2018-09-21T01:58:14.638Z,3.30
2018-09-21T01:59:14.662Z,3.50
2018-09-21T02:00:14.615Z,3.40
2018-09-21T02:01:14.637Z,3.20
2018-09-21T02:02:14.597Z,3.40
2018-09-21T02:03:14.581Z,3.50
2018-09-21T02:04:14.576Z,3.40
2018-09-21T02:05:14.572Z,3.20
2018-09-21T02:06:14.547Z,3.10
2018-09-21T02:07:14.556Z,3.20
2018-09-21T02:08:14.542Z,3.30
2018-09-21T02:09:14.517Z,3.40
2018-09-21T02:10:14.505Z,3.20
2018-09-21T02:11:14.542Z,3.50
2018-09-21T02:12:14.494Z,3.20
2018-09-21T02:13:14.469Z,3.40
2018-09-21T02:14:14.504Z,3.60
2018-09-21T02:15:14.447Z,3.60
2018-09-21T02:16:14.443Z,3.20
2018-09-21T02:17:14.424Z,3.10
2018-09-21T02:18:14.448Z,3.30
2018-09-21T02:19:14.402Z,3.30
2018-09-21T02:20:14.480Z,3.40
2018-09-21T02:21:14.417Z,3.10
2018-09-21T02:22:14.374Z,3.50
2018-09-21T02:23:14.359Z,3.50
2018-09-21T02:24:14.364Z,3.00
2018-09-21T02:25:14.400Z,3.20
2018-09-21T02:26:14.361Z,3.50
2018-09-21T02:27:14.331Z,3.30
2018-09-21T02:28:14.307Z,3.60
2018-09-21T02:29:14.292Z,3.10
2018-09-21T02:30:14.308Z,3.30
2018-09-21T02:31:14.268Z,3.20
2018-09-21T02:32:14.279Z,3.00
2018-09-21T02:33:14.273Z,3.50
2018-09-21T02:34:14.234Z,3.30
2018-09-21T02:35:14.246Z,3.50
2018-09-21T02:36:14.216Z,3.50
2018-09-21T02:37:14.201Z,3.10
2018-09-21T02:38:14.239Z,3.60
2018-09-21T02:39:14.178Z,3.30
2018-09-21T02:40:14.171Z,3.30
2018-09-21T02:41:14.256Z,3.20
2018-09-21T02:42:14.145Z,3.10
2018-09-21T02:43:14.133Z,3.90
2018-09-21T02:44:14.164Z,3.10
2018-09-21T02:45:14.114Z,3.80
2018-09-21T02:46:14.110Z,3.10
2018-09-21T02:47:14.109Z,3.20
2018-09-21T02:48:14.078Z,3.30
2018-09-21T02:49:14.068Z,3.90
2018-09-21T02:50:14.102Z,3.70
2018-09-21T02:51:14.078Z,3.20
2018-09-21T02:52:14.085Z,3.30
2018-09-21T02:53:14.026Z,2.80
2018-09-21T02:54:14.010Z,3.20
2018-09-21T02:55:22.838Z,3.00
2018-09-21T02:56:14.028Z,3.20
2018-09-21T02:57:14.047Z,3.50
2018-09-21T02:58:14.045Z,3.20
2018-09-21T02:59:13.998Z,3.60
2018-09-21T03:00:13.963Z,3.40
2018-09-21T03:01:13.956Z,3.20
2018-09-21T03:02:13.965Z,3.50
2018-09-21T03:03:13.918Z,3.70
2018-09-21T03:04:13.901Z,3.50
2018-09-21T03:05:13.898Z,3.20
2018-09-21T03:06:13.882Z,3.60
2018-09-21T03:07:13.893Z,3.20
2018-09-21T03:08:13.874Z,3.10
2018-09-21T03:09:13.850Z,3.30
2018-09-21T03:10:13.861Z,3.60
2018-09-21T03:11:13.823Z,3.50
2018-09-21T03:12:13.811Z,3.70
2018-09-21T03:13:13.925Z,3.40
2018-09-21T03:14:21.415Z,3.40
2018-09-21T03:15:13.801Z,3.20
2018-09-21T03:16:13.771Z,3.50
2018-09-21T03:17:13.793Z,4.00
2018-09-21T03:18:13.766Z,3.50
2018-09-21T03:19:13.753Z,2.90
2018-09-21T03:20:13.767Z,3.90
2018-09-21T03:21:13.756Z,3.40
2018-09-21T03:22:13.810Z,4.00
2018-09-21T03:23:13.690Z,3.30
2018-09-21T03:24:13.729Z,3.50
2018-09-21T03:25:13.683Z,3.50
2018-09-21T03:26:13.670Z,3.30
2018-09-21T03:27:13.647Z,3.80
2018-09-21T03:28:13.647Z,3.40
2018-09-21T03:29:13.658Z,3.20
2018-09-21T03:30:13.647Z,3.40
2018-09-21T03:31:13.630Z,3.40
2018-09-21T03:32:13.612Z,3.20
2018-09-21T03:33:13.578Z,3.30
2018-09-21T03:34:21.677Z,3.50
2018-09-21T03:35:13.642Z,3.20
2018-09-21T03:36:13.574Z,3.20
2018-09-21T03:37:13.656Z,3.50
2018-09-21T03:38:13.601Z,3.30
2018-09-21T03:39:13.540Z,3.40
2018-09-21T03:40:13.502Z,3.60
2018-09-21T03:41:13.516Z,3.60
2018-09-21T03:42:13.513Z,3.20
2018-09-21T03:43:13.471Z,2.70
2018-09-21T03:44:13.480Z,2.90
2018-09-21T03:45:13.457Z,3.20
2018-09-21T03:46:13.526Z,3.60
2018-09-21T03:47:13.460Z,3.40
2018-09-21T03:48:13.506Z,3.40
2018-09-21T03:49:13.459Z,3.00
2018-09-21T03:50:13.392Z,3.50
2018-09-21T03:51:13.384Z,3.20
2018-09-21T03:52:13.394Z,3.60
2018-09-21T03:53:13.354Z,3.20
2018-09-21T03:54:13.382Z,3.50
2018-09-21T03:55:13.345Z,3.20
2018-09-21T03:56:13.323Z,3.60
2018-09-21T03:57:13.328Z,3.20
2018-09-21T03:58:13.317Z,3.30
2018-09-21T03:59:13.296Z,3.20
2018-09-21T04:00:13.311Z,3.30
2018-09-21T04:01:13.357Z,3.70
2018-09-21T04:02:13.272Z,3.40
2018-09-21T04:03:13.245Z,3.30
2018-09-21T04:04:13.292Z,2.80
2018-09-21T04:05:13.231Z,3.10
2018-09-21T04:06:13.212Z,3.10
2018-09-21T04:07:13.199Z,3.20
2018-09-21T04:08:13.239Z,3.60
2018-09-21T04:09:13.188Z,3.20
2018-09-21T04:10:13.239Z,3.40
2018-09-21T04:11:13.156Z,3.40
2018-09-21T04:12:21.054Z,3.40
2018-09-21T04:13:13.165Z,3.30
2018-09-21T04:14:13.184Z,3.20
2018-09-21T04:15:13.122Z,3.70
2018-09-21T04:16:13.236Z,3.90
2018-09-21T04:17:13.136Z,3.30
2018-09-21T04:18:13.106Z,3.00
2018-09-21T04:19:13.065Z,3.40
2018-09-21T04:20:13.072Z,3.50
2018-09-21T04:21:13.043Z,3.20
2018-09-21T04:22:13.032Z,3.40
2018-09-21T04:23:13.113Z,3.00
2018-09-21T04:24:13.011Z,3.60
2018-09-21T04:25:12.998Z,3.50
2018-09-21T04:26:12.998Z,3.30
2018-09-21T04:27:13.000Z,3.30
2018-09-21T04:28:12.965Z,3.40
2018-09-21T04:29:12.982Z,3.40
2018-09-21T04:30:12.945Z,3.40
2018-09-21T04:31:20.816Z,3.40
2018-09-21T04:32:13.002Z,3.50
2018-09-21T04:33:12.985Z,3.50
2018-09-21T04:34:12.908Z,3.20
2018-09-21T04:35:12.942Z,3.40
2018-09-21T04:36:12.945Z,3.00
2018-09-21T04:37:12.971Z,3.30
2018-09-21T04:38:12.900Z,3.30
2018-09-21T04:39:12.843Z,3.60
2018-09-21T04:40:12.836Z,3.70
2018-09-21T04:41:12.850Z,3.40
2018-09-21T04:42:12.810Z,3.80
2018-09-21T04:43:12.801Z,3.30
2018-09-21T04:44:12.803Z,2.90
2018-09-21T04:45:12.840Z,3.30
2018-09-21T04:46:12.775Z,2.80
2018-09-21T04:47:12.768Z,3.80
2018-09-21T04:48:12.767Z,3.30
2018-09-21T04:49:12.730Z,3.00
2018-09-21T04:50:21.681Z,3.20
2018-09-21T04:51:12.724Z,3.30
2018-09-21T04:52:12.790Z,3.40
2018-09-21T04:53:12.692Z,3.50
2018-09-21T04:54:12.711Z,3.20
2018-09-21T04:55:12.789Z,3.70
2018-09-21T04:56:12.653Z,3.50
2018-09-21T04:57:12.650Z,3.50
2018-09-21T04:58:12.693Z,3.50
2018-09-21T04:59:12.632Z,3.20
2018-09-21T05:00:12.625Z,3.30
2018-09-21T05:01:12.613Z,3.20
2018-09-21T05:02:12.583Z,3.20
2018-09-21T05:03:12.590Z,3.30
2018-09-21T05:04:12.587Z,3.30
2018-09-21T05:05:12.558Z,3.00
2018-09-21T05:06:12.575Z,3.30
2018-09-21T05:07:12.547Z,3.30
2018-09-21T05:08:12.530Z,3.30
2018-09-21T05:09:12.526Z,3.10
2018-09-21T05:10:12.520Z,3.00
2018-09-21T05:11:12.484Z,3.00
2018-09-21T05:12:12.477Z,3.20
2018-09-21T05:13:12.487Z,3.20
2018-09-21T05:14:12.451Z,3.30
2018-09-21T05:15:12.440Z,3.40
2018-09-21T05:16:12.442Z,4.00
2018-09-21T05:17:12.418Z,3.50
2018-09-21T05:18:12.522Z,2.80
2018-09-21T05:19:12.399Z,3.00
2018-09-21T05:20:12.384Z,3.40
2018-09-21T05:21:12.418Z,3.20
2018-09-21T05:22:12.362Z,3.60
2018-09-21T05:23:12.349Z,2.80
2018-09-21T05:24:12.359Z,2.80
2018-09-21T05:25:12.330Z,3.30
2018-09-21T05:26:12.319Z,3.20
2018-09-21T05:27:21.503Z,3.20
2018-09-21T05:28:12.332Z,3.30
2018-09-21T05:29:12.308Z,3.20
2018-09-21T05:30:12.359Z,3.60
2018-09-21T05:31:12.262Z,3.60
2018-09-21T05:32:12.264Z,3.50
2018-09-21T05:33:12.298Z,2.90
2018-09-21T05:34:12.291Z,3.10
2018-09-21T05:35:12.306Z,3.20
2018-09-21T05:36:12.229Z,3.60
2018-09-21T05:37:12.195Z,2.90
2018-09-21T05:38:12.233Z,3.30
2018-09-21T05:39:12.173Z,3.30
2018-09-21T05:40:12.161Z,3.10
2018-09-21T05:41:12.183Z,3.50
2018-09-21T05:42:12.140Z,3.50
2018-09-21T05:43:12.127Z,3.50
2018-09-21T05:44:12.193Z,3.00
2018-09-21T05:45:12.110Z,3.00
2018-09-21T05:46:12.121Z,3.60
2018-09-21T05:47:19.753Z,2.90
2018-09-21T05:48:12.139Z,3.40
2018-09-21T05:49:12.068Z,3.20
2018-09-21T05:50:12.071Z,2.90
2018-09-21T05:51:12.055Z,3.20
2018-09-21T05:52:12.045Z,3.00
2018-09-21T05:53:12.026Z,3.20
2018-09-21T05:54:12.038Z,3.50
2018-09-21T05:55:12.025Z,2.90
2018-09-21T05:56:12.080Z,3.30
2018-09-21T05:57:11.973Z,3.10
2018-09-21T05:58:12.047Z,2.70
2018-09-21T05:59:11.982Z,3.00
2018-09-21T06:00:12.021Z,3.00
2018-09-21T06:01:11.951Z,3.10
2018-09-21T06:02:12.002Z,2.70
2018-09-21T06:03:11.935Z,2.60
2018-09-21T06:04:11.914Z,2.90
2018-09-21T06:05:19.763Z,3.10
2018-09-21T06:06:11.907Z,2.80
2018-09-21T06:07:12.863Z,3.20
2018-09-21T06:08:11.881Z,2.80
2018-09-21T06:09:11.883Z,2.90
2018-09-21T06:10:11.932Z,3.40
2018-09-21T06:11:11.838Z,2.40
2018-09-21T06:12:11.805Z,2.80
2018-09-21T06:13:11.839Z,2.80
2018-09-21T06:14:11.782Z,2.70
2018-09-21T06:15:11.781Z,3.20
2018-09-21T06:16:20.381Z,2.50
2018-09-21T06:17:11.761Z,2.90
2018-09-21T06:18:11.739Z,2.70
2018-09-21T06:19:11.778Z,2.40
2018-09-21T06:20:12.185Z,2.20
2018-09-21T06:21:11.797Z,2.60
2018-09-21T06:22:11.751Z,2.80
2018-09-21T06:23:11.684Z,3.00
2018-09-21T06:24:11.696Z,2.40
2018-09-21T06:25:11.758Z,2.30
2018-09-21T06:26:11.695Z,2.00
2018-09-21T06:27:11.652Z,1.60
2018-09-21T06:28:11.644Z,2.40
2018-09-21T06:29:11.625Z,2.20
2018-09-21T06:30:11.634Z,2.10
2018-09-21T06:31:11.594Z,2.50
2018-09-21T06:32:11.582Z,2.00
2018-09-21T06:33:11.747Z,2.30
2018-09-21T06:34:21.198Z,2.60
2018-09-21T06:35:11.578Z,1.80
2018-09-21T06:36:11.556Z,1.70
2018-09-21T06:37:11.531Z,1.80
2018-09-21T06:38:11.534Z,1.70
2018-09-21T06:39:11.517Z,2.30
2018-09-21T06:40:11.559Z,2.10
2018-09-21T06:41:11.543Z,2.10
2018-09-21T06:42:11.507Z,2.30
2018-09-21T06:43:11.519Z,2.20
2018-09-21T06:44:11.517Z,2.10
2018-09-21T06:45:11.439Z,2.00
2018-09-21T06:46:11.481Z,1.80
2018-09-21T06:47:11.423Z,2.20
2018-09-21T06:48:11.406Z,1.60
2018-09-21T06:49:11.395Z,1.90
2018-09-21T06:50:11.416Z,2.00
2018-09-21T06:51:11.372Z,1.90
2018-09-21T06:52:11.634Z,2.10
2018-09-21T06:53:11.352Z,2.10
2018-09-21T06:54:11.339Z,2.10
2018-09-21T06:55:11.366Z,1.70
2018-09-21T06:56:11.318Z,1.80
2018-09-21T06:57:11.420Z,1.70
2018-09-21T06:58:11.395Z,1.50
2018-09-21T06:59:19.320Z,1.90
2018-09-21T07:00:11.338Z,1.90
2018-09-21T07:01:11.309Z,1.40
2018-09-21T07:02:11.355Z,1.30
2018-09-21T07:03:11.241Z,1.40
2018-09-21T07:04:11.278Z,1.80
2018-09-21T07:05:11.280Z,1.80
2018-09-21T07:06:11.237Z,1.90
2018-09-21T07:07:11.320Z,2.00
2018-09-21T07:08:11.192Z,1.70
2018-09-21T07:09:11.172Z,1.70
2018-09-21T07:10:11.221Z,1.70
2018-09-21T07:11:11.162Z,1.90
2018-09-21T07:12:11.155Z,1.50
2018-09-21T07:13:11.154Z,1.40
2018-09-21T07:14:11.116Z,1.70
2018-09-21T07:15:11.106Z,1.60
2018-09-21T07:16:11.094Z,1.30
2018-09-21T07:17:11.083Z,1.60
2018-09-21T07:18:11.116Z,1.50
2018-09-21T07:19:18.985Z,1.20
2018-09-21T07:20:11.089Z,1.20
2018-09-21T07:21:11.085Z,1.60
2018-09-21T07:22:11.081Z,1.90
2018-09-21T07:23:11.049Z,1.50
2018-09-21T07:24:11.027Z,1.30
2018-09-21T07:25:11.032Z,1.60
2018-09-21T07:26:10.994Z,1.50
2018-09-21T07:27:10.974Z,1.90
2018-09-21T07:28:11.178Z,1.50
2018-09-21T07:29:11.016Z,1.60
2018-09-21T07:30:11.082Z,1.60
2018-09-21T07:31:11.088Z,1.60
2018-09-21T07:32:11.015Z,1.50
2018-09-21T07:33:10.943Z,1.50
2018-09-21T07:34:10.895Z,1.60
2018-09-21T07:35:10.923Z,1.70
2018-09-21T07:36:10.886Z,1.30
2018-09-21T07:37:10.858Z,2.20
2018-09-21T07:38:10.924Z,1.50
2018-09-21T07:39:18.855Z,1.70
2018-09-21T07:40:10.982Z,1.50
2018-09-21T07:41:10.837Z,1.80
2018-09-21T07:42:10.874Z,1.60
2018-09-21T07:43:10.823Z,1.80
2018-09-21T07:44:11.069Z,1.40
2018-09-21T07:45:11.086Z,1.80
2018-09-21T07:46:10.803Z,1.90
2018-09-21T07:47:10.749Z,1.50
2018-09-21T07:48:10.796Z,1.50
2018-09-21T07:49:10.731Z,1.60
2018-09-21T07:50:10.715Z,2.10
2018-09-21T07:51:10.763Z,1.50
2018-09-21T07:52:10.709Z,1.80
2018-09-21T07:53:10.683Z,1.70
2018-09-21T07:54:10.672Z,1.70
2018-09-21T07:55:10.657Z,1.80
2018-09-21T07:56:10.817Z,1.90
2018-09-21T07:57:10.641Z,2.20
2018-09-21T07:58:19.852Z,1.90
2018-09-21T07:59:10.970Z,1.70
2018-09-21T08:00:10.609Z,1.90
2018-09-21T08:01:10.656Z,1.70
2018-09-21T08:02:10.584Z,1.50
2018-09-21T08:03:10.579Z,1.80
2018-09-21T08:04:10.852Z,1.70
2018-09-21T08:05:10.675Z,2.10
2018-09-21T08:06:10.818Z,1.30
2018-09-21T08:07:10.581Z,2.00
2018-09-21T08:08:10.667Z,1.80
2018-09-21T08:09:10.615Z,1.50
2018-09-21T08:10:10.513Z,1.30
2018-09-21T08:11:10.487Z,1.80
2018-09-21T08:12:10.470Z,1.50
2018-09-21T08:13:10.507Z,1.60
2018-09-21T08:14:10.460Z,2.00
2018-09-21T08:15:10.436Z,1.80
2018-09-21T08:16:10.478Z,1.80
2018-09-21T08:17:18.528Z,1.90
2018-09-21T08:18:18.568Z,1.80
2018-09-21T08:19:10.483Z,1.60
2018-09-21T08:20:10.489Z,1.90
2018-09-21T08:21:10.370Z,1.60
2018-09-21T08:22:10.402Z,2.00
2018-09-21T08:23:10.456Z,1.80
2018-09-21T08:24:10.606Z,1.90
2018-09-21T08:25:10.432Z,2.90
2018-09-21T08:26:10.562Z,1.70
2018-09-21T08:27:10.333Z,2.00
2018-09-21T08:28:10.338Z,2.10
2018-09-21T08:29:10.277Z,1.60
2018-09-21T08:30:10.304Z,2.30
2018-09-21T08:31:10.290Z,2.00
2018-09-21T08:32:10.290Z,2.20
2018-09-21T08:33:10.320Z,2.20
2018-09-21T08:34:10.225Z,2.20
2018-09-21T08:35:10.213Z,2.30
2018-09-21T08:36:10.248Z,2.00
2018-09-21T08:37:19.189Z,2.10
2018-09-21T08:38:10.241Z,2.40
2018-09-21T08:39:10.181Z,2.80
2018-09-21T08:40:10.321Z,2.80
2018-09-21T08:41:10.440Z,1.80
2018-09-21T08:42:10.235Z,2.10
2018-09-21T08:43:10.371Z,2.30
2018-09-21T08:44:10.132Z,2.50
2018-09-21T08:45:10.131Z,2.40
2018-09-21T08:46:10.091Z,2.60
2018-09-21T08:47:10.113Z,2.50
2018-09-21T08:48:10.122Z,1.70
2018-09-21T08:49:10.058Z,1.80
2018-09-21T08:50:10.072Z,2.30
2018-09-21T08:51:10.079Z,1.80
2018-09-21T08:52:10.022Z,1.60
2018-09-21T08:53:10.010Z,2.30
2018-09-21T08:54:10.041Z,1.80
2018-09-21T08:55:09.986Z,1.90
2018-09-21T08:56:09.995Z,1.70
2018-09-21T08:57:18.806Z,1.90
2018-09-21T08:58:09.993Z,2.10
2018-09-21T08:59:09.947Z,2.10
2018-09-21T09:00:10.018Z,1.60
2018-09-21T09:01:09.980Z,2.10
2018-09-21T09:02:10.203Z,1.90
2018-09-21T09:03:10.055Z,1.70
2018-09-21T09:04:09.918Z,1.90
2018-09-21T09:05:09.874Z,1.60
2018-09-21T09:06:09.918Z,2.30
2018-09-21T09:07:09.852Z,2.00
2018-09-21T09:08:09.867Z,2.00
2018-09-21T09:09:09.874Z,2.10
2018-09-21T09:10:09.929Z,2.50
2018-09-21T09:11:09.820Z,2.40
2018-09-21T09:12:09.795Z,2.00
2018-09-21T09:13:09.825Z,2.40
2018-09-21T09:14:09.791Z,2.30
2018-09-21T09:15:09.772Z,2.00
2018-09-21T09:16:09.781Z,2.40
2018-09-21T09:17:09.750Z,1.90
2018-09-21T09:18:09.732Z,1.80
2018-09-21T09:19:09.719Z,2.30
2018-09-21T09:20:09.723Z,1.60
2018-09-21T09:21:09.731Z,2.20
2018-09-21T09:22:17.614Z,2.20
2018-09-21T09:23:09.870Z,1.80
2018-09-21T09:24:09.778Z,2.20
2018-09-21T09:25:09.745Z,2.00
2018-09-21T09:26:09.753Z,2.20
2018-09-21T09:27:09.849Z,2.30
2018-09-21T09:28:09.697Z,2.10
2018-09-21T09:29:09.609Z,1.90
2018-09-21T09:30:09.658Z,2.30
2018-09-21T09:31:09.741Z,1.90
2018-09-21T09:32:09.578Z,2.10
2018-09-21T09:33:09.606Z,2.50
2018-09-21T09:34:09.594Z,2.20
2018-09-21T09:35:09.535Z,2.90
2018-09-21T09:36:09.530Z,1.90
2018-09-21T09:37:09.517Z,2.10
2018-09-21T09:38:09.503Z,2.40
2018-09-21T09:39:09.531Z,3.00
2018-09-21T09:40:09.517Z,2.10
2018-09-21T09:41:09.499Z,2.90
2018-09-21T09:42:09.456Z,2.30
2018-09-21T09:43:09.469Z,1.90
2018-09-21T09:44:09.485Z,2.40
2018-09-21T09:45:09.426Z,2.30
2018-09-21T09:46:09.433Z,2.30
2018-09-21T09:47:09.431Z,2.50
2018-09-21T09:48:09.388Z,2.20
2018-09-21T09:49:09.420Z,2.30
2018-09-21T09:50:09.374Z,2.90
2018-09-21T09:51:09.355Z,2.90
2018-09-21T09:52:09.362Z,3.00
2018-09-21T09:53:09.357Z,2.50
2018-09-21T09:54:09.326Z,2.50
2018-09-21T09:55:09.309Z,2.10
2018-09-21T09:56:09.303Z,2.70
2018-09-21T09:57:09.310Z,2.50
2018-09-21T09:58:09.376Z,2.50
2018-09-21T09:59:09.279Z,2.40
2018-09-21T10:00:09.277Z,2.50
2018-09-21T10:01:17.611Z,2.70
2018-09-21T10:02:09.308Z,2.50
2018-09-21T10:03:09.394Z,2.90
2018-09-21T10:04:09.208Z,2.40
2018-09-21T10:05:09.228Z,3.10
2018-09-21T10:06:09.183Z,2.50
2018-09-21T10:07:09.423Z,2.20
2018-09-21T10:08:09.282Z,2.40
2018-09-21T10:09:09.221Z,2.30
2018-09-21T10:10:09.144Z,2.30
2018-09-21T10:11:09.164Z,2.80
2018-09-21T10:12:09.209Z,2.90
2018-09-21T10:13:09.110Z,3.00
2018-09-21T10:14:09.097Z,2.90
2018-09-21T10:15:09.169Z,3.20
2018-09-21T10:16:09.076Z,2.90
2018-09-21T10:17:09.101Z,2.70
2018-09-21T10:18:09.050Z,2.20
2018-09-21T10:19:09.043Z,2.50
2018-09-21T10:20:09.102Z,2.80
2018-09-21T10:21:09.054Z,2.70
2018-09-21T10:22:17.172Z,3.20
2018-09-21T10:23:09.015Z,2.70
2018-09-21T10:24:09.156Z,2.80
2018-09-21T10:25:09.073Z,3.20
2018-09-21T10:26:09.103Z,2.60
2018-09-21T10:27:09.040Z,2.80
2018-09-21T10:28:09.066Z,3.00
2018-09-21T10:29:08.959Z,2.50
2018-09-21T10:30:08.915Z,2.20
2018-09-21T10:31:08.912Z,2.40
2018-09-21T10:32:08.916Z,2.60
2018-09-21T10:33:08.973Z,2.90
2018-09-21T10:34:08.937Z,2.50
2018-09-21T10:35:08.858Z,2.50
2018-09-21T10:36:08.847Z,2.50
2018-09-21T10:37:08.904Z,2.20
2018-09-21T10:38:08.826Z,2.60
2018-09-21T10:39:08.869Z,2.20
2018-09-21T10:40:08.916Z,2.30
2018-09-21T10:41:16.844Z,2.30
2018-09-21T10:42:08.835Z,2.60
2018-09-21T10:43:08.888Z,2.90
2018-09-21T10:44:08.815Z,2.40
2018-09-21T10:45:08.807Z,2.30
2018-09-21T10:46:09.048Z,2.40
2018-09-21T10:47:08.854Z,2.60
2018-09-21T10:48:08.875Z,2.60
2018-09-21T10:49:08.743Z,2.20
2018-09-21T10:50:08.691Z,2.90
2018-09-21T10:51:08.767Z,2.20
2018-09-21T10:52:08.668Z,2.20
2018-09-21T10:53:08.656Z,2.00
2018-09-21T10:54:08.682Z,2.20
2018-09-21T10:55:08.634Z,2.30
2018-09-21T10:56:08.685Z,2.10
2018-09-21T10:57:08.625Z,1.90
2018-09-21T10:58:08.597Z,2.10
2018-09-21T10:59:08.590Z,1.50
2018-09-21T11:00:08.629Z,1.70
2018-09-21T11:01:18.402Z,1.30
2018-09-21T11:02:08.604Z,1.30
2018-09-21T11:03:08.590Z,1.10
2018-09-21T11:04:08.571Z,1.30
2018-09-21T11:05:08.628Z,1.10
2018-09-21T11:06:08.688Z,1.10
2018-09-21T11:07:08.566Z,1.40
2018-09-21T11:08:08.487Z,1.00
2018-09-21T11:09:08.536Z,1.20
2018-09-21T11:10:08.466Z,1.40
2018-09-21T11:11:08.461Z,1.60
2018-09-21T11:12:08.484Z,1.20
2018-09-21T11:13:08.461Z,1.20
2018-09-21T11:14:08.433Z,0.90
2018-09-21T11:15:08.485Z,1.10
2018-09-21T11:16:08.402Z,0.80
2018-09-21T11:17:08.435Z,1.10
2018-09-21T11:18:08.401Z,1.00
2018-09-21T11:19:08.409Z,1.30
2018-09-21T11:20:17.556Z,1.60
2018-09-21T11:21:08.383Z,0.90
2018-09-21T11:22:08.330Z,1.10
2018-09-21T11:23:08.440Z,1.60
2018-09-21T11:24:08.432Z,1.20
2018-09-21T11:25:08.567Z,1.10
2018-09-21T11:26:08.350Z,1.20
2018-09-21T11:27:08.352Z,1.40
2018-09-21T11:28:08.276Z,1.10
2018-09-21T11:29:08.300Z,1.60
2018-09-21T11:30:08.237Z,1.40
2018-09-21T11:31:08.276Z,1.10
2018-09-21T11:32:08.246Z,1.20
2018-09-21T11:33:08.283Z,1.50
2018-09-21T11:34:08.231Z,1.30
2018-09-21T11:35:08.187Z,1.70
2018-09-21T11:36:08.172Z,1.10
2018-09-21T11:37:08.163Z,1.70
2018-09-21T11:38:08.204Z,0.90
2018-09-21T11:39:17.303Z,1.00
2018-09-21T11:40:08.169Z,1.40
2018-09-21T11:41:08.345Z,1.30
2018-09-21T11:42:08.231Z,1.00
2018-09-21T11:43:08.514Z,1.20
2018-09-21T11:44:08.145Z,0.90
2018-09-21T11:45:08.072Z,1.20
2018-09-21T11:46:08.123Z,1.40
2018-09-21T11:47:08.144Z,0.90
2018-09-21T11:48:08.043Z,1.10
2018-09-21T11:49:08.047Z,1.10
2018-09-21T11:50:08.068Z,1.10
2018-09-21T11:51:08.002Z,1.10
2018-09-21T11:52:07.990Z,1.10
2018-09-21T11:53:07.983Z,0.90
2018-09-21T11:54:07.972Z,1.20
2018-09-21T11:55:08.086Z,1.20
2018-09-21T11:56:07.947Z,1.10
2018-09-21T11:57:07.935Z,1.00
2018-09-21T11:58:07.925Z,1.80
2018-09-21T11:59:15.762Z,1.40
2018-09-21T12:00:07.946Z,1.20
2018-09-21T12:01:07.929Z,1.40
2018-09-21T12:02:07.962Z,1.50
2018-09-21T12:03:08.005Z,0.80
2018-09-21T12:04:08.127Z,1.20
2018-09-21T12:05:07.929Z,1.30
2018-09-21T12:06:07.853Z,1.20
2018-09-21T12:07:07.825Z,1.30
2018-09-21T12:08:07.852Z,1.20
2018-09-21T12:09:07.801Z,0.90
2018-09-21T12:10:07.807Z,1.20
2018-09-21T12:11:07.813Z,1.10
2018-09-21T12:12:07.770Z,1.40
2018-09-21T12:13:07.764Z,1.30
2018-09-21T12:14:07.743Z,0.90
2018-09-21T12:15:07.734Z,1.10
2018-09-21T12:16:07.816Z,1.20
2018-09-21T12:17:07.838Z,0.80
2018-09-21T12:18:15.660Z,1.00
2018-09-21T12:19:07.695Z,0.90
2018-09-21T12:20:07.743Z,1.10
2018-09-21T12:21:07.713Z,0.70
2018-09-21T12:22:07.788Z,0.90
2018-09-21T12:23:07.666Z,0.70
2018-09-21T12:24:07.635Z,1.20
2018-09-21T12:25:07.650Z,1.00
2018-09-21T12:26:07.668Z,0.80
2018-09-21T12:27:07.597Z,0.70
2018-09-21T12:28:07.643Z,0.50
2018-09-21T12:29:07.584Z,0.70
2018-09-21T12:30:07.563Z,0.60
2018-09-21T12:31:07.553Z,0.80
2018-09-21T12:32:07.579Z,0.60
2018-09-21T12:33:07.558Z,0.40
2018-09-21T12:34:07.575Z,0.60
2018-09-21T12:35:07.507Z,0.40
2018-09-21T12:36:07.624Z,0.60
2018-09-21T12:37:15.746Z,0.50
2018-09-21T12:38:07.547Z,0.60
2018-09-21T12:39:07.673Z,0.40
2018-09-21T12:40:07.489Z,0.40
2018-09-21T12:41:07.543Z,0.70
2018-09-21T12:42:07.636Z,0.70
2018-09-21T12:43:07.464Z,0.40
2018-09-21T12:44:07.435Z,0.60
2018-09-21T12:45:07.456Z,0.40
2018-09-21T12:46:07.386Z,0.30
2018-09-21T12:47:07.445Z,0.50
2018-09-21T12:48:07.372Z,0.50
2018-09-21T12:49:07.381Z,0.70
2018-09-21T12:50:07.353Z,0.50
2018-09-21T12:51:07.365Z,0.40
2018-09-21T12:52:15.363Z,0.60
2018-09-21T12:53:07.354Z,0.60
2018-09-21T12:54:07.325Z,0.40
2018-09-21T12:55:07.323Z,0.70
2018-09-21T12:56:07.362Z,0.60
2018-09-21T12:57:07.504Z,0.40
2018-09-21T12:58:07.388Z,0.60
2018-09-21T12:59:07.390Z,0.40
2018-09-21T13:00:07.258Z,0.60
2018-09-21T13:01:07.285Z,0.60
2018-09-21T13:02:07.251Z,0.50
2018-09-21T13:03:07.274Z,0.50
2018-09-21T13:04:07.189Z,0.70
2018-09-21T13:05:07.255Z,0.70
2018-09-21T13:06:07.204Z,0.60
2018-09-21T13:07:07.468Z,0.30
2018-09-21T13:08:07.168Z,0.70
2018-09-21T13:09:07.137Z,0.50
2018-09-21T13:10:07.162Z,0.70
2018-09-21T13:11:07.113Z,0.50
2018-09-21T13:12:15.268Z,0.60
2018-09-21T13:13:07.119Z,0.60
2018-09-21T13:14:07.106Z,0.40
2018-09-21T13:15:07.078Z,0.70
2018-09-21T13:16:07.146Z,0.50
2018-09-21T13:17:07.104Z,0.30
2018-09-21T13:18:07.079Z,0.50